Impacts METAR Board INFO
IDs:

KTPA - Tampa Intl Arpt, FL, US

Updated at: 1532 UTC 23 Jan 2018
Potential Impact None Slight Moderate High
Time23/03Z 23/04Z 23/05Z 23/06Z 23/07Z 23/08Z 23/09Z 23/10Z 23/11Z 23/12Z 23/13Z 23/14Z 23/15Z
VIS10 8 10 9 10 7 10 10 9 10 9 10 10
CIG90 45 60 60 55 60 75 80 110 120 160 250 250
CoverBKNOVCOVCOVCOVCOVCOVCOVCOVCOVCBKNBKNBKN
FltCatVFRVFRVFRVFRVFRVFRVFRVFRVFRVFRVFRVFRVFR
WX---RA-------------RA-RA------
WDir34000400140170180180190220190210
WSpd5 0 0 3 0 6 9 9 9 6 4 3 4
WGst-- -- -- -- -- -- -- -- -- -- -- -- --
Raw hourly METARs
KTPA 230253Z 34005KT 10SM SCT060 BKN090 BKN140 21/18 A3006 RMK AO2 SLP179 60001 T02110183 50006
KTPA 230353Z 00000KT 8SM -RA BKN045 OVC090 20/18 A3007 RMK AO2 RAB16 SLP182 P0003 T02000183
KTPA 230453Z 00000KT 10SM FEW005 SCT035 OVC060 20/18 A3006 RMK AO2 RAE30 SLP180 P0004 T02000183 402670172
KTPA 230553Z 04003KT 9SM FEW005 SCT035 OVC060 20/18 A3005 RMK AO2 SLP174 60008 T02000183 10217 20194 58005
KTPA 230653Z 00000KT 10SM FEW005 BKN055 OVC110 20/18 A3003 RMK AO2 SLP169 T02000183
KTPA 230753Z 14006KT 7SM BKN060 BKN075 OVC100 20/18 A3002 RMK AO2 SLP165 T02000183
KTPA 230853Z 17009KT 10SM SCT060 BKN075 OVC120 20/18 A3002 RMK AO2 RAB0755E06 SLP164 P0001 60001 T02000178 56009
KTPA 230953Z 18009KT 10SM SCT038 BKN080 OVC095 19/18 A3003 RMK AO2 RAB0856E41 SLP167 P0004 T01940178
KTPA 231053Z 18009KT 9SM -RA SCT070 OVC110 19/18 A3004 RMK AO2 RAB14 SLP173 P0002 T01940178
KTPA 231153Z 19006KT 10SM -RA FEW065 OVC120 20/18 A3004 RMK AO2 SLP172 P0003 60010 70020 T02000183 10206 20189 50008
KTPA 231253Z 22004KT 9SM SCT090 BKN160 19/18 A3005 RMK AO2 RAE07 SLP176 P0004 T01940178
KTPA 231353Z 19003KT 10SM FEW100 SCT170 BKN250 20/18 A3006 RMK AO2 SLP180 T02000183
KTPA 231453Z 21004KT 10SM SCT035 SCT170 BKN250 21/19 A3008 RMK AO2 SLP187 60004 T02110189 53015